Time;durP1;ratioP1;P1;durP2;ratioP2;P2;SDS_P1;SDS_P2;PMS_P1;PMS_P2;Temp;Humidity;BMP_temperature;BMP_pressure;BME280_temperature;BME280_humidity;BME280_pressure;Samples;Min_cycle;Max_cycle;Signal;HPM_P1;HPM_P2
2022/03/04 00:01:58;;;;;;;22.43;12.57;;;4.80;99.90;;;;;;4986946;28;20438;-72
2022/03/04 00:04:23;;;;;;;23.90;13.27;;;4.70;99.90;;;;;;4987840;28;20907;-71
2022/03/04 00:06:49;;;;;;;25.37;13.47;;;4.60;99.90;;;;;;4987901;28;20502;-71
2022/03/04 00:09:15;;;;;;;25.87;13.00;;;4.60;99.90;;;;;;4986584;28;20214;-71
2022/03/04 00:11:41;;;;;;;23.80;13.73;;;4.40;99.90;;;;;;4985233;28;20533;-71
2022/03/04 00:14:08;;;;;;;24.17;13.23;;;4.40;99.90;;;;;;4987922;28;20209;-72
2022/03/04 00:16:34;;;;;;;21.67;12.63;;;4.60;99.90;;;;;;4986107;28;20433;-72
2022/03/04 00:19:12;;;;;;;22.27;13.55;;;4.50;99.90;;;;;;4985480;28;20410;-71
2022/03/04 00:21:44;;;;;;;22.40;13.50;;;4.90;99.90;;;;;;4987719;28;20644;-72
2022/03/04 00:24:11;;;;;;;24.33;13.73;;;4.60;99.90;;;;;;4987961;28;20429;-72
2022/03/04 00:26:38;;;;;;;21.73;13.13;;;4.40;99.90;;;;;;4987283;28;20756;-71
2022/03/04 00:29:05;;;;;;;21.73;13.63;;;4.40;99.90;;;;;;4986201;28;20455;-71
2022/03/04 00:31:31;;;;;;;26.23;14.10;;;4.40;99.90;;;;;;4987893;28;20488;-72
2022/03/04 00:33:56;;;;;;;22.77;13.90;;;4.40;99.90;;;;;;4992885;28;20576;-72
2022/03/04 00:36:23;;;;;;;24.63;14.23;;;4.40;99.90;;;;;;4993341;28;20961;-72
2022/03/04 00:38:50;;;;;;;28.93;15.17;;;4.50;99.90;;;;;;4996700;28;20570;-72
2022/03/04 00:41:20;;;;;;;24.67;13.40;;;4.80;99.90;;;;;;5005265;28;20774;-72
2022/03/04 00:43:46;;;;;;;25.50;13.60;;;4.40;99.90;;;;;;5003982;28;20812;-72
2022/03/04 00:46:13;;;;;;;21.40;13.13;;;4.30;99.90;;;;;;4993866;28;20906;-72
2022/03/04 00:48:39;;;;;;;26.40;14.30;;;4.20;99.90;;;;;;4993881;28;20453;-72
2022/03/04 00:51:04;;;;;;;23.53;13.43;;;4.30;99.90;;;;;;4993225;28;20759;-71
2022/03/04 00:53:30;;;;;;;22.77;14.40;;;4.40;99.90;;;;;;4994558;28;20619;-72
2022/03/04 00:55:56;;;;;;;24.47;13.33;;;4.30;99.90;;;;;;4993602;28;20614;-71
2022/03/04 00:58:23;;;;;;;25.33;14.67;;;4.30;99.90;;;;;;4993191;28;20260;-71
2022/03/04 01:00:48;;;;;;;25.90;14.60;;;4.30;99.90;;;;;;4991883;28;20435;-72
2022/03/04 01:03:17;;;;;;;23.67;13.63;;;4.20;99.90;;;;;;4993576;28;20413;-71
2022/03/04 01:05:43;;;;;;;22.60;14.20;;;4.20;99.90;;;;;;4978729;28;20630;-71
2022/03/04 01:08:08;;;;;;;24.83;14.63;;;4.10;99.90;;;;;;4995658;28;20550;-71
2022/03/04 01:10:34;;;;;;;22.27;13.30;;;4.00;99.90;;;;;;5002992;28;20185;-71
2022/03/04 01:13:00;;;;;;;24.40;14.27;;;3.80;99.90;;;;;;4974914;28;20176;-71
2022/03/04 01:15:26;;;;;;;27.90;13.60;;;3.70;99.90;;;;;;4984165;28;20536;-72
2022/03/04 01:17:52;;;;;;;21.23;13.27;;;3.60;99.90;;;;;;4993627;28;20691;-72
2022/03/04 01:20:17;;;;;;;26.20;14.20;;;3.50;99.90;;;;;;4992652;28;20484;-71
2022/03/04 01:22:43;;;;;;;23.80;13.77;;;3.40;99.90;;;;;;4992582;28;20211;-71
2022/03/04 01:25:09;;;;;;;27.90;13.77;;;3.30;99.90;;;;;;4993931;28;20215;-72
2022/03/04 01:27:35;;;;;;;25.83;14.43;;;3.30;99.90;;;;;;4993797;28;20201;-72
2022/03/04 01:30:01;;;;;;;25.27;14.37;;;3.30;99.90;;;;;;4993938;28;20451;-72
2022/03/04 01:32:27;;;;;;;27.07;14.53;;;3.30;99.90;;;;;;4993023;28;20201;-71
2022/03/04 01:34:52;;;;;;;22.60;14.03;;;3.30;99.90;;;;;;4992532;28;20452;-71
2022/03/04 01:37:18;;;;;;;28.53;14.10;;;3.40;99.90;;;;;;4993557;28;20260;-71
2022/03/04 01:39:43;;;;;;;25.20;14.10;;;3.40;99.90;;;;;;4985440;28;20383;-71
2022/03/04 01:42:09;;;;;;;22.87;13.13;;;3.40;99.90;;;;;;4998568;28;20167;-71
2022/03/04 01:44:35;;;;;;;27.10;14.40;;;3.40;99.90;;;;;;4988720;28;20224;-71
2022/03/04 01:47:01;;;;;;;26.33;14.30;;;3.40;99.90;;;;;;4988290;28;20197;-71
2022/03/04 01:49:26;;;;;;;22.13;13.53;;;3.40;99.90;;;;;;4990595;28;20208;-71
2022/03/04 01:51:52;;;;;;;25.63;14.93;;;3.40;99.90;;;;;;4990350;28;20408;-71
2022/03/04 01:54:17;;;;;;;24.40;14.57;;;3.30;99.90;;;;;;4988886;28;20180;-71
2022/03/04 01:56:43;;;;;;;25.13;14.30;;;3.30;99.90;;;;;;4989763;28;20214;-71
2022/03/04 01:59:09;;;;;;;29.37;15.03;;;3.20;99.90;;;;;;4988885;28;20171;-70
2022/03/04 02:01:35;;;;;;;24.07;13.53;;;3.20;99.90;;;;;;4988485;28;20523;-71
2022/03/04 02:04:00;;;;;;;24.80;14.33;;;3.10;99.90;;;;;;4990165;28;20554;-71
2022/03/04 02:06:26;;;;;;;25.53;14.50;;;3.10;99.90;;;;;;4988802;28;20443;-71
2022/03/04 02:08:51;;;;;;;28.47;14.77;;;2.90;99.90;;;;;;4991834;28;20217;-71
2022/03/04 02:11:17;;;;;;;24.47;14.97;;;2.90;99.90;;;;;;4997707;28;20177;-70
2022/03/04 02:13:43;;;;;;;30.87;15.47;;;2.90;99.90;;;;;;4990020;28;20212;-71
2022/03/04 02:16:26;;;;;;;25.03;15.20;;;2.90;99.90;;;;;;4989419;28;20589;-71
2022/03/04 02:18:52;;;;;;;27.33;15.47;;;2.90;99.90;;;;;;4988124;28;20670;-71
2022/03/04 02:21:20;;;;;;;24.90;14.30;;;2.80;99.90;;;;;;4989497;28;20925;-71
2022/03/04 02:23:47;;;;;;;28.53;15.20;;;2.90;99.90;;;;;;4990753;28;20790;-71
2022/03/04 02:26:12;;;;;;;28.60;16.13;;;3.00;99.90;;;;;;4989790;28;20439;-71
2022/03/04 02:28:38;;;;;;;26.60;14.70;;;4.90;99.90;;;;;;4990458;28;20461;-71
2022/03/04 02:31:03;;;;;;;26.53;14.40;;;3.00;99.90;;;;;;4988982;28;20182;-71
2022/03/04 02:33:29;;;;;;;25.50;15.60;;;3.10;99.90;;;;;;4989152;28;20242;-71
2022/03/04 02:35:55;;;;;;;23.50;14.30;;;3.10;99.90;;;;;;4988297;28;20232;-72
2022/03/04 02:38:20;;;;;;;26.20;15.07;;;3.10;99.90;;;;;;4989939;28;20670;-71
2022/03/04 02:40:46;;;;;;;26.77;15.40;;;3.20;99.90;;;;;;5001059;28;20353;-71
2022/03/04 02:43:11;;;;;;;29.77;15.43;;;3.30;99.90;;;;;;4989711;28;20237;-71
2022/03/04 02:45:37;;;;;;;25.67;14.53;;;3.30;99.90;;;;;;4988882;28;20685;-71
2022/03/04 02:48:02;;;;;;;25.83;14.67;;;3.30;99.90;;;;;;4988942;28;20209;-71
2022/03/04 02:50:28;;;;;;;26.13;15.73;;;3.30;99.90;;;;;;4986819;28;20274;-71
2022/03/04 02:52:54;;;;;;;29.43;15.63;;;3.30;99.90;;;;;;4989246;28;20630;-71
2022/03/04 02:55:19;;;;;;;28.33;15.87;;;3.30;99.90;;;;;;4987705;28;20722;-71
2022/03/04 02:57:46;;;;;;;24.20;13.90;;;3.30;99.90;;;;;;4989655;28;20185;-71
2022/03/04 03:00:15;;;;;;;27.33;15.93;;;3.30;99.90;;;;;;4989167;28;20194;-72
2022/03/04 03:02:42;;;;;;;28.20;15.10;;;3.30;99.90;;;;;;4988240;28;20829;-71
2022/03/04 03:05:09;;;;;;;28.53;16.00;;;3.20;99.90;;;;;;4984955;28;20466;-71
2022/03/04 03:07:34;;;;;;;30.03;15.57;;;3.30;99.90;;;;;;4970094;28;20427;-71
2022/03/04 03:10:00;;;;;;;27.53;15.70;;;3.30;99.90;;;;;;4996159;28;20613;-71
2022/03/04 03:12:26;;;;;;;27.90;14.97;;;3.20;99.90;;;;;;5004071;28;20526;-71
2022/03/04 03:14:51;;;;;;;31.50;15.93;;;3.20;99.90;;;;;;4989923;28;20207;-72
2022/03/04 03:17:17;;;;;;;26.90;16.20;;;3.10;99.90;;;;;;4987210;28;20244;-71
2022/03/04 03:19:42;;;;;;;24.70;14.50;;;3.10;99.90;;;;;;4989263;28;20234;-72
2022/03/04 03:22:09;;;;;;;25.47;14.50;;;3.00;99.90;;;;;;4989046;28;20254;-72
2022/03/04 03:24:34;;;;;;;29.73;14.43;;;3.10;99.90;;;;;;4989288;28;20188;-71
2022/03/04 03:27:00;;;;;;;30.13;15.70;;;3.10;99.90;;;;;;4988758;28;20434;-71
2022/03/04 03:29:26;;;;;;;27.03;14.90;;;3.10;99.90;;;;;;4987347;28;20680;-72
2022/03/04 03:31:51;;;;;;;25.33;15.17;;;3.10;99.90;;;;;;4987721;28;20654;-72
2022/03/04 03:34:16;;;;;;;27.77;14.90;;;3.10;99.90;;;;;;4989370;28;20208;-72
2022/03/04 03:36:42;;;;;;;24.40;14.80;;;3.00;99.90;;;;;;4986529;28;20234;-71
2022/03/04 03:39:08;;;;;;;27.23;15.23;;;3.00;99.90;;;;;;4988895;28;20191;-71
2022/03/04 03:41:34;;;;;;;29.17;16.40;;;2.90;99.90;;;;;;4989673;28;20194;-71
2022/03/04 03:44:00;;;;;;;25.47;15.07;;;2.90;99.90;;;;;;4987274;28;20606;-72
2022/03/04 03:46:25;;;;;;;26.27;15.20;;;2.90;99.90;;;;;;4986897;28;20514;-71
2022/03/04 03:48:51;;;;;;;30.53;16.13;;;2.90;99.90;;;;;;4987135;28;20204;-71
2022/03/04 03:51:17;;;;;;;25.87;14.70;;;2.80;99.90;;;;;;4988042;28;20201;-71
2022/03/04 03:53:42;;;;;;;28.80;14.80;;;2.80;99.90;;;;;;4988961;28;20270;-71
2022/03/04 03:56:08;;;;;;;32.13;16.33;;;2.80;99.90;;;;;;4988010;28;20230;-71
2022/03/04 03:58:34;;;;;;;28.23;15.20;;;2.70;99.90;;;;;;4988546;28;20234;-71
2022/03/04 04:01:00;;;;;;;28.40;15.80;;;2.70;99.90;;;;;;4987355;28;20202;-71
2022/03/04 04:03:25;;;;;;;29.40;15.27;;;2.70;99.90;;;;;;4986165;28;20220;-70
2022/03/04 04:05:51;;;;;;;26.13;15.20;;;2.80;99.90;;;;;;4987029;28;20657;-72
2022/03/04 04:08:16;;;;;;;25.20;14.23;;;2.70;99.90;;;;;;4988117;28;20259;-71
2022/03/04 04:10:42;;;;;;;29.53;15.77;;;2.70;99.90;;;;;;4997186;28;20179;-71
2022/03/04 04:13:07;;;;;;;28.50;14.83;;;1.80;99.90;;;;;;4996876;28;20186;-72
2022/03/04 04:15:33;;;;;;;28.80;16.10;;;2.60;99.90;;;;;;4987530;28;20669;-71
2022/03/04 04:17:58;;;;;;;25.67;15.17;;;2.60;99.90;;;;;;4987611;28;20184;-71
2022/03/04 04:20:24;;;;;;;30.50;15.97;;;2.60;99.90;;;;;;4987727;28;20198;-71
2022/03/04 04:22:49;;;;;;;28.67;15.40;;;2.50;99.90;;;;;;4988154;28;20171;-71
2022/03/04 04:25:15;;;;;;;29.00;16.17;;;2.50;99.90;;;;;;4988409;28;20202;-71
2022/03/04 04:27:40;;;;;;;31.07;16.20;;;2.50;99.90;;;;;;4987902;28;20210;-71
2022/03/04 04:30:06;;;;;;;28.93;15.27;;;2.40;99.90;;;;;;4987576;28;20740;-71
2022/03/04 04:32:32;;;;;;;26.83;15.83;;;2.30;99.90;;;;;;4985819;28;20263;-71
2022/03/04 04:34:58;;;;;;;28.93;15.97;;;2.30;99.90;;;;;;4986635;28;21005;-71
2022/03/04 04:37:23;;;;;;;31.90;15.20;;;2.50;99.90;;;;;;4988191;28;20195;-71
2022/03/04 04:39:49;;;;;;;28.23;15.03;;;2.30;99.90;;;;;;4991166;28;20211;-71
2022/03/04 04:42:14;;;;;;;27.30;15.67;;;2.20;99.90;;;;;;4993817;28;20178;-71
2022/03/04 04:44:40;;;;;;;27.93;15.07;;;2.10;99.90;;;;;;4987681;28;20221;-71
2022/03/04 04:47:06;;;;;;;26.60;14.53;;;2.10;99.90;;;;;;4987474;28;20187;-71
2022/03/04 04:49:36;;;;;;;31.00;16.13;;;2.10;99.90;;;;;;4983390;28;20210;-71
2022/03/04 04:52:04;;;;;;;35.70;16.30;;;1.90;99.90;;;;;;4987315;28;20509;-71
2022/03/04 04:54:29;;;;;;;29.83;15.63;;;1.80;99.90;;;;;;4990895;28;20435;-71
2022/03/04 04:56:55;;;;;;;30.97;16.13;;;1.80;99.90;;;;;;4987657;28;20812;-71
2022/03/04 04:59:20;;;;;;;30.40;15.90;;;1.80;99.90;;;;;;4987875;28;20653;-71
2022/03/04 05:01:46;;;;;;;29.70;15.97;;;1.80;99.90;;;;;;4986638;28;20187;-72
2022/03/04 05:04:11;;;;;;;33.53;16.00;;;1.90;99.90;;;;;;4988445;28;20249;-71
2022/03/04 05:06:37;;;;;;;32.67;16.20;;;1.90;99.90;;;;;;4987663;28;20281;-71
2022/03/04 05:09:02;;;;;;;28.87;16.03;;;1.80;99.90;;;;;;4991770;28;20238;-71
2022/03/04 05:11:28;;;;;;;33.50;15.83;;;1.80;99.90;;;;;;4999120;28;20198;-71
2022/03/04 05:13:55;;;;;;;30.20;16.07;;;1.80;99.90;;;;;;4990687;28;20176;-71
2022/03/04 05:16:20;;;;;;;31.83;16.77;;;1.80;99.90;;;;;;4984393;28;20469;-71
2022/03/04 05:18:46;;;;;;;29.33;16.70;;;1.90;99.90;;;;;;4988027;28;20262;-71
2022/03/04 05:21:11;;;;;;;27.40;15.57;;;2.10;99.90;;;;;;4991087;28;20180;-71
2022/03/04 05:26:21;;;;;;;28.83;15.13;;;2.40;99.90;;;;;;4991393;28;20218;-71
2022/03/04 05:28:46;;;;;;;28.00;15.90;;;2.50;99.90;;;;;;4991798;28;20454;-71
2022/03/04 05:31:12;;;;;;;28.60;15.60;;;2.60;99.90;;;;;;4990611;28;20197;-71
2022/03/04 05:33:37;;;;;;;43.10;16.57;;;2.70;99.90;;;;;;4990297;28;20258;-71
2022/03/04 05:36:03;;;;;;;27.43;15.13;;;2.80;99.90;;;;;;4990968;28;20286;-70
2022/03/04 05:38:29;;;;;;;30.93;16.43;;;2.90;99.90;;;;;;4985483;28;20184;-71
2022/03/04 05:40:54;;;;;;;23.90;14.20;;;2.90;99.90;;;;;;4998808;28;20198;-71
2022/03/04 05:43:20;;;;;;;27.13;15.00;;;2.90;99.90;;;;;;4989906;28;20171;-71
2022/03/04 05:45:45;;;;;;;30.50;16.60;;;2.90;99.90;;;;;;4990686;28;20501;-71
2022/03/04 05:48:11;;;;;;;27.70;15.60;;;2.90;99.90;;;;;;4989994;28;20214;-71
2022/03/04 05:50:37;;;;;;;27.83;14.40;;;2.90;99.90;;;;;;4990714;28;20187;-71
2022/03/04 05:53:02;;;;;;;29.20;16.53;;;2.90;99.90;;;;;;4990481;28;20208;-71
2022/03/04 05:55:28;;;;;;;32.27;16.93;;;2.90;99.90;;;;;;4989447;28;20195;-71
2022/03/04 05:57:54;;;;;;;27.33;15.57;;;2.90;99.90;;;;;;4990564;28;20546;-71
2022/03/04 06:00:20;;;;;;;28.50;16.17;;;2.90;99.90;;;;;;4990086;28;20434;-72
2022/03/04 06:02:45;;;;;;;33.40;15.83;;;2.90;99.90;;;;;;4989883;28;20171;-71
2022/03/04 06:05:11;;;;;;;29.00;15.37;;;2.90;99.90;;;;;;4990910;28;20708;-71
2022/03/04 06:07:36;;;;;;;35.63;16.97;;;2.90;99.90;;;;;;4990367;28;20184;-71
2022/03/04 06:10:03;;;;;;;31.73;16.80;;;2.90;99.90;;;;;;4997498;28;20934;-71
2022/03/04 06:12:28;;;;;;;32.77;17.87;;;2.90;99.90;;;;;;4987242;28;20187;-71
2022/03/04 06:14:54;;;;;;;27.37;16.67;;;3.00;99.90;;;;;;4989687;28;20454;-71
2022/03/04 06:17:19;;;;;;;30.50;17.73;;;3.00;99.90;;;;;;4988923;28;20176;-71
2022/03/04 06:19:45;;;;;;;27.10;16.33;;;3.00;99.90;;;;;;4990556;28;20180;-71
2022/03/04 06:22:10;;;;;;;30.97;17.90;;;3.00;99.90;;;;;;4988652;28;20203;-71
2022/03/04 06:24:37;;;;;;;35.03;18.20;;;3.00;99.90;;;;;;4989028;28;20657;-71
2022/03/04 06:27:02;;;;;;;31.93;17.10;;;3.00;99.90;;;;;;4988691;28;20180;-71
2022/03/04 06:29:28;;;;;;;30.40;17.50;;;3.00;99.90;;;;;;4989279;28;20454;-71
2022/03/04 06:31:53;;;;;;;33.20;16.70;;;3.10;99.90;;;;;;4989153;28;20176;-71
2022/03/04 06:34:19;;;;;;;30.07;16.80;;;3.10;99.90;;;;;;4990470;28;20665;-71
2022/03/04 06:36:44;;;;;;;30.97;17.33;;;3.20;99.90;;;;;;4989311;28;20206;-71
2022/03/04 06:39:10;;;;;;;31.17;18.23;;;3.20;99.90;;;;;;4989556;28;20183;-71
2022/03/04 06:41:37;;;;;;;31.70;17.37;;;3.20;99.90;;;;;;5000878;28;20202;-72
2022/03/04 06:44:03;;;;;;;31.07;16.37;;;3.30;99.90;;;;;;5007978;28;20594;-72
2022/03/04 06:46:28;;;;;;;30.70;17.60;;;3.40;99.90;;;;;;4994715;28;20516;-72
2022/03/04 06:48:54;;;;;;;33.63;17.40;;;3.40;99.90;;;;;;4988513;28;20450;-73
2022/03/04 06:51:19;;;;;;;32.10;17.97;;;3.60;99.90;;;;;;4984581;28;20598;-72
2022/03/04 06:53:45;;;;;;;29.47;17.07;;;3.80;99.90;;;;;;4988579;28;20180;-71
2022/03/04 06:56:10;;;;;;;35.90;18.47;;;3.90;99.90;;;;;;4990086;28;20195;-72
2022/03/04 06:58:36;;;;;;;34.30;19.10;;;4.00;99.90;;;;;;4989899;28;20185;-73
2022/03/04 07:01:02;;;;;;;32.80;18.60;;;4.00;99.90;;;;;;4988201;28;20700;-73
2022/03/04 07:03:28;;;;;;;32.47;18.60;;;4.10;99.90;;;;;;4988799;28;20661;-72
2022/03/04 07:05:53;;;;;;;33.80;19.00;;;4.30;99.90;;;;;;4987894;28;20450;-72
2022/03/04 07:08:19;;;;;;;31.00;19.10;;;4.50;99.90;;;;;;4987999;28;20296;-73
2022/03/04 07:10:44;;;;;;;32.50;19.70;;;4.50;99.90;;;;;;4997384;28;20276;-72
2022/03/04 07:13:11;;;;;;;33.17;19.10;;;4.50;99.90;;;;;;5003965;28;20179;-72
2022/03/04 07:15:37;;;;;;;32.47;19.60;;;4.40;99.90;;;;;;4988495;28;20200;-72
2022/03/04 07:18:02;;;;;;;32.80;19.07;;;4.40;99.90;;;;;;4988388;28;21080;-72
2022/03/04 07:20:28;;;;;;;33.43;18.57;;;4.40;99.90;;;;;;4983859;28;20512;-72
2022/03/04 07:22:54;;;;;;;36.70;19.27;;;4.40;99.90;;;;;;4982347;28;20207;-72
2022/03/04 07:25:20;;;;;;;30.73;18.10;;;4.30;99.90;;;;;;4983311;28;20957;-72
2022/03/04 07:27:45;;;;;;;33.70;19.20;;;4.40;99.90;;;;;;4985360;28;20670;-72
2022/03/04 07:30:16;;;;;;;32.43;18.87;;;4.30;99.90;;;;;;4991422;28;20175;-73
2022/03/04 07:32:43;;;;;;;31.57;17.97;;;4.40;99.90;;;;;;4989512;28;20188;-72
2022/03/04 07:35:09;;;;;;;31.10;19.03;;;4.50;99.90;;;;;;4991403;28;20456;-72
2022/03/04 07:37:36;;;;;;;33.53;18.07;;;4.70;99.90;;;;;;4987474;28;20937;-72
2022/03/04 07:40:04;;;;;;;31.53;18.27;;;4.60;99.90;;;;;;4986961;28;20434;-72
2022/03/04 07:42:30;;;;;;;31.17;18.47;;;4.60;99.90;;;;;;4986531;28;20427;-72
2022/03/04 07:44:55;;;;;;;34.10;19.20;;;4.60;99.90;;;;;;4998582;28;20907;-72
2022/03/04 07:47:21;;;;;;;33.27;19.23;;;4.70;99.90;;;;;;4995183;28;20181;-72
2022/03/04 07:49:46;;;;;;;30.97;18.93;;;4.70;99.90;;;;;;4992653;28;20216;-72
2022/03/04 07:52:12;;;;;;;33.80;19.67;;;4.80;99.90;;;;;;5011242;28;20263;-72
2022/03/04 07:54:38;;;;;;;39.40;19.23;;;4.90;99.90;;;;;;4997786;28;20224;-72
2022/03/04 07:57:04;;;;;;;34.70;19.30;;;4.90;99.90;;;;;;4998886;28;20634;-72
2022/03/04 07:59:30;;;;;;;30.80;18.90;;;5.00;99.90;;;;;;4988169;28;20189;-72
2022/03/04 08:01:55;;;;;;;32.60;19.40;;;5.10;99.90;;;;;;4990121;28;20431;-72
2022/03/04 08:04:21;;;;;;;33.43;19.60;;;5.10;99.90;;;;;;4990547;28;20204;-72
2022/03/04 08:06:46;;;;;;;35.17;18.50;;;5.20;99.90;;;;;;4998446;28;20635;-72
2022/03/04 08:09:12;;;;;;;33.53;18.77;;;5.20;99.90;;;;;;4987709;28;20561;-72
2022/03/04 08:11:37;;;;;;;35.50;20.50;;;5.30;99.90;;;;;;4994093;28;20187;-72
2022/03/04 08:14:03;;;;;;;38.63;20.27;;;5.30;99.90;;;;;;4987884;28;20695;-72
2022/03/04 08:16:31;;;;;;;36.60;19.83;;;5.40;99.90;;;;;;4992766;28;20197;-72
2022/03/04 08:18:58;;;;;;;36.00;20.80;;;5.40;99.90;;;;;;5014984;28;20230;-72
2022/03/04 08:21:24;;;;;;;36.67;20.10;;;5.50;99.90;;;;;;4997321;28;20777;-72
2022/03/04 08:23:50;;;;;;;34.07;19.50;;;5.60;99.90;;;;;;4998757;28;20452;-72
2022/03/04 08:26:15;;;;;;;34.87;20.17;;;5.70;99.90;;;;;;4998428;28;20470;-72
2022/03/04 08:28:41;;;;;;;37.93;19.63;;;5.70;99.90;;;;;;4989960;28;20300;-72
2022/03/04 08:31:13;;;;;;;38.83;20.47;;;5.80;99.90;;;;;;4990239;28;20189;-73
2022/03/04 08:33:41;;;;;;;39.20;20.20;;;5.90;99.90;;;;;;4985254;28;20299;-72
2022/03/04 08:36:06;;;;;;;49.80;21.30;;;6.00;99.90;;;;;;4997546;28;20856;-72
2022/03/04 08:38:32;;;;;;;40.50;20.77;;;6.10;99.90;;;;;;4990630;28;20511;-72
2022/03/04 08:40:58;;;;;;;35.63;20.57;;;6.10;99.90;;;;;;4999759;28;20268;-72
2022/03/04 08:43:23;;;;;;;35.33;20.90;;;6.30;99.90;;;;;;4995346;28;20176;-72
2022/03/04 08:45:49;;;;;;;34.00;20.27;;;6.30;99.90;;;;;;4998225;28;20274;-72
2022/03/04 08:48:14;;;;;;;37.40;21.67;;;6.30;99.90;;;;;;4989378;28;20197;-72
2022/03/04 08:50:40;;;;;;;38.33;21.00;;;6.40;99.90;;;;;;5009661;28;20182;-72
2022/03/04 08:53:06;;;;;;;34.63;20.27;;;6.40;99.90;;;;;;4987583;28;20182;-72
2022/03/04 08:55:31;;;;;;;34.57;21.47;;;6.80;99.90;;;;;;4999504;28;20209;-72
2022/03/04 08:57:58;;;;;;;33.40;20.17;;;8.20;99.90;;;;;;4998196;28;20240;-72
2022/03/04 09:00:24;;;;;;;32.97;21.67;;;10.00;99.00;;;;;;4999791;28;20201;-73
2022/03/04 09:02:50;;;;;;;37.67;23.00;;;11.80;96.40;;;;;;4997789;28;20449;-72
2022/03/04 09:05:16;;;;;;;35.33;22.37;;;13.30;89.10;;;;;;4995759;28;20214;-73
2022/03/04 09:07:41;;;;;;;33.73;23.80;;;14.90;89.30;;;;;;4992283;28;20524;-73
2022/03/04 09:10:08;;;;;;;37.70;25.90;;;15.70;74.20;;;;;;4999860;28;20539;-73
2022/03/04 09:12:34;;;;;;;40.47;28.50;;;16.50;76.50;;;;;;4991203;28;20179;-73
2022/03/04 09:15:00;;;;;;;42.50;30.00;;;17.40;73.30;;;;;;4993004;28;20475;-74
2022/03/04 09:17:25;;;;;;;40.10;29.73;;;17.70;64.80;;;;;;4999313;28;20488;-73
2022/03/04 09:19:51;;;;;;;40.33;29.30;;;17.50;65.70;;;;;;5002390;28;20609;-73
2022/03/04 09:22:17;;;;;;;40.00;30.00;;;17.90;61.40;;;;;;4996303;28;20287;-73
2022/03/04 09:24:42;;;;;;;43.40;30.43;;;18.60;61.70;;;;;;4997408;28;20198;-73
2022/03/04 09:27:08;;;;;;;37.73;29.37;;;18.20;59.80;;;;;;5002337;28;20265;-73
2022/03/04 09:29:34;;;;;;;41.93;30.97;;;18.90;54.80;;;;;;4999435;28;20282;-73
2022/03/04 09:32:00;;;;;;;42.97;32.00;;;18.90;56.30;;;;;;4993296;28;20182;-73
2022/03/04 09:34:25;;;;;;;41.77;30.40;;;19.80;46.30;;;;;;4998819;28;20617;-73
2022/03/04 09:36:51;;;;;;;40.23;31.13;;;19.70;49.60;;;;;;4998687;28;20186;-73
2022/03/04 09:39:17;;;;;;;38.50;29.80;;;19.70;47.70;;;;;;4990527;28;20257;-73
2022/03/04 09:41:45;;;;;;;37.70;29.03;;;19.30;51.00;;;;;;4999636;28;20337;-73
2022/03/04 09:44:15;;;;;;;41.40;29.63;;;19.40;46.30;;;;;;5001729;28;20170;-73
2022/03/04 09:46:41;;;;;;;49.53;31.43;;;19.90;47.60;;;;;;4990806;28;20635;-73
2022/03/04 09:49:08;;;;;;;39.50;30.23;;;19.90;48.30;;;;;;4994435;28;20833;-73
2022/03/04 09:51:34;;;;;;;44.87;31.07;;;20.30;46.80;;;;;;4994961;28;21039;-73
2022/03/04 09:54:00;;;;;;;41.03;30.77;;;20.10;46.60;;;;;;4995286;28;20515;-73
2022/03/04 09:56:26;;;;;;;40.60;29.47;;;20.80;47.10;;;;;;4995179;28;21097;-73
2022/03/04 09:58:52;;;;;;;40.53;30.70;;;21.20;47.40;;;;;;4996390;28;20434;-73
2022/03/04 10:01:17;;;;;;;40.97;30.93;;;21.40;47.60;;;;;;4994909;28;20181;-73
2022/03/04 10:03:51;;;;;;;41.73;29.37;;;20.90;47.10;;;;;;4998393;28;20194;-73
2022/03/04 10:06:18;;;;;;;35.20;28.20;;;20.50;46.80;;;;;;4998370;28;20204;-73
2022/03/04 10:08:46;;;;;;;36.87;28.27;;;20.60;47.80;;;;;;4989443;28;20493;-73
2022/03/04 10:11:22;;;;;;;39.93;29.20;;;20.90;47.10;;;;;;4988406;28;20643;-73
2022/03/04 10:13:53;;;;;;;39.13;29.20;;;22.40;48.20;;;;;;4989255;28;20413;-73
2022/03/04 10:16:32;;;;;;;38.53;29.73;;;21.90;47.90;;;;;;4991053;28;20453;-73
2022/03/04 10:19:15;;;;;;;38.03;28.50;;;21.50;47.60;;;;;;5024603;28;20429;-73
2022/03/04 10:21:53;;;;;;;37.03;29.33;;;22.00;46.40;;;;;;4985216;28;20444;-73
2022/03/04 10:24:22;;;;;;;37.40;28.70;;;22.60;46.20;;;;;;4999976;28;20413;-74
2022/03/04 10:26:59;;;;;;;39.70;28.90;;;22.60;50.10;;;;;;4992610;28;20418;-73
2022/03/04 10:29:28;;;;;;;35.70;29.47;;;23.10;46.00;;;;;;4989975;28;20560;-73
2022/03/04 10:32:09;;;;;;;37.10;29.43;;;22.80;47.60;;;;;;4996122;28;20750;-74
2022/03/04 10:34:53;;;;;;;39.30;28.67;;;23.30;40.10;;;;;;4995307;28;20417;-73
2022/03/04 10:37:39;;;;;;;41.93;28.03;;;23.30;42.00;;;;;;4995707;28;20448;-74
2022/03/04 10:40:07;;;;;;;36.97;27.33;;;23.50;48.30;;;;;;4995160;28;20427;-72
2022/03/04 10:42:47;;;;;;;35.97;27.87;;;24.90;41.00;;;;;;4986884;28;20182;-74
2022/03/04 10:45:40;;;;;;;35.50;27.67;;;26.20;33.90;;;;;;4986800;28;20206;-74
2022/03/04 10:48:12;;;;;;;32.70;25.60;;;25.50;33.80;;;;;;4988860;28;20733;-73
2022/03/04 10:50:38;;;;;;;33.70;26.63;;;25.70;26.70;;;;;;5014072;28;20183;-74
2022/03/04 10:53:10;;;;;;;33.93;26.57;;;26.00;31.70;;;;;;4993369;28;20162;-73
2022/03/04 10:55:43;;;;;;;33.83;27.50;;;25.90;28.60;;;;;;4989244;28;20214;-74
2022/03/04 10:58:14;;;;;;;36.50;28.53;;;25.20;27.30;;;;;;4991943;28;20597;-74
2022/03/04 11:00:43;;;;;;;31.80;26.10;;;24.70;32.40;;;;;;4997033;28;20190;-74
2022/03/04 11:03:22;;;;;;;32.10;26.20;;;25.50;26.30;;;;;;5008917;28;20723;-73
2022/03/04 11:05:50;;;;;;;33.30;26.07;;;25.70;28.70;;;;;;4994945;28;20214;-73
2022/03/04 11:08:17;;;;;;;29.77;24.60;;;26.40;28.60;;;;;;4992522;28;20305;-73
2022/03/04 11:10:43;;;;;;;30.20;23.13;;;27.00;25.30;;;;;;4999162;28;20662;-74
2022/03/04 11:13:10;;;;;;;29.30;23.27;;;26.20;23.60;;;;;;4991339;28;20174;-73
2022/03/04 11:15:37;;;;;;;27.50;22.10;;;26.40;24.90;;;;;;4987756;28;20214;-73
2022/03/04 11:18:05;;;;;;;24.90;20.10;;;26.40;27.70;;;;;;4987026;28;20182;-73
2022/03/04 11:20:31;;;;;;;27.53;21.80;;;26.30;26.00;;;;;;4987726;28;20186;-73
2022/03/04 11:22:58;;;;;;;29.70;22.33;;;25.40;29.10;;;;;;4987359;28;20688;-73
2022/03/04 11:25:23;;;;;;;29.40;21.80;;;25.20;30.50;;;;;;4991908;28;20602;-73
2022/03/04 11:27:51;;;;;;;30.00;24.77;;;25.90;23.50;;;;;;4992997;28;20210;-74
2022/03/04 11:30:47;;;;;;;30.90;25.07;;;26.70;32.90;;;;;;4987391;28;20178;-73
2022/03/04 11:33:33;;;;;;;27.17;22.07;;;27.20;23.00;;;;;;4997183;28;20190;-72
2022/03/04 11:35:59;;;;;;;24.33;20.07;;;26.30;26.90;;;;;;4986354;28;20270;-75
2022/03/04 11:38:46;;;;;;;25.10;20.50;;;26.70;22.20;;;;;;4987355;28;20276;-74
2022/03/04 11:41:25;;;;;;;27.13;21.55;;;27.40;16.30;;;;;;4981947;28;20305;-73
2022/03/04 11:43:56;;;;;;;28.35;21.52;;;28.50;18.00;;;;;;4988797;28;20202;-71
2022/03/04 11:46:28;;;;;;;25.70;20.85;;;28.50;15.70;;;;;;4988276;28;20649;-71
2022/03/04 11:49:31;;;;;;;26.23;21.50;;;27.40;15.80;;;;;;4996667;28;20294;-71
2022/03/04 11:52:09;;;;;;;26.17;21.20;;;26.70;20.50;;;;;;4991535;28;20192;-71
2022/03/04 11:54:35;;;;;;;27.50;22.67;;;25.70;20.10;;;;;;4990731;28;20183;-71
2022/03/04 11:57:17;;;;;;;29.37;22.67;;;25.60;23.60;;;;;;4985057;28;20198;-71
2022/03/04 12:00:21;;;;;;;27.70;21.43;;;25.20;26.50;;;;;;4984963;28;20326;-71
2022/03/04 12:02:50;;;;;;;26.80;21.13;;;24.90;22.50;;;;;;4985046;28;20265;-71
2022/03/04 12:05:19;;;;;;;27.83;22.17;;;25.90;23.20;;;;;;4987916;28;20233;-71
2022/03/04 12:07:47;;;;;;;26.20;20.27;;;25.90;23.30;;;;;;4995724;28;20189;-71
2022/03/04 12:10:16;;;;;;;26.73;20.60;;;26.30;21.30;;;;;;5001875;28;20197;-71
2022/03/04 12:13:08;;;;;;;27.13;21.57;;;26.30;18.50;;;;;;4991551;28;20742;-71
2022/03/04 12:15:37;;;;;;;24.70;20.33;;;26.80;14.20;;;;;;4985103;28;20348;-71
2022/03/04 12:18:07;;;;;;;24.93;19.90;;;27.50;13.80;;;;;;4987749;28;20695;-71
2022/03/04 12:20:39;;;;;;;25.98;20.42;;;28.00;17.30;;;;;;4996453;28;20201;-71
2022/03/04 12:23:26;;;;;;;25.25;20.20;;;28.00;18.70;;;;;;4998340;28;20516;-72
2022/03/04 12:25:52;;;;;;;26.85;20.85;;;28.50;18.00;;;;;;5005253;28;20270;-71
2022/03/04 12:28:20;;;;;;;26.02;21.33;;;28.60;15.30;;;;;;4996405;28;20283;-71
2022/03/04 12:30:46;;;;;;;23.45;19.95;;;27.70;17.70;;;;;;4994772;28;20544;-71
2022/03/04 12:33:12;;;;;;;24.85;20.27;;;27.20;15.50;;;;;;4993781;28;20179;-71
2022/03/04 12:35:38;;;;;;;27.35;20.15;;;26.60;17.40;;;;;;4989184;28;20514;-71
2022/03/04 12:38:03;;;;;;;27.03;20.30;;;26.60;16.20;;;;;;4980041;28;20186;-71